createdAt,value
2023-04-12T00:01:52.530Z,36.30
2023-04-12T00:03:54.465Z,41.42
2023-04-12T00:05:56.193Z,36.08
2023-04-12T00:07:58.239Z,39.40
2023-04-12T00:09:59.647Z,39.70
2023-04-12T00:12:02.000Z,42.25
2023-04-12T00:14:03.591Z,38.47
2023-04-12T00:16:05.261Z,52.50
2023-04-12T00:18:06.889Z,43.80
2023-04-12T00:20:12.200Z,41.30
2023-04-12T00:22:13.647Z,40.53
2023-04-12T00:24:15.149Z,36.40
2023-04-12T00:26:16.553Z,37.20
2023-04-12T00:28:18.026Z,37.35
2023-04-12T00:30:19.487Z,36.72
2023-04-12T00:32:20.901Z,36.47
2023-04-12T00:34:22.333Z,34.40
2023-04-12T00:36:23.741Z,37.72
2023-04-12T00:38:25.228Z,35.05
2023-04-12T00:40:26.651Z,33.78
2023-04-12T00:42:28.579Z,35.00
2023-04-12T00:44:30.090Z,32.67
2023-04-12T00:46:32.692Z,35.42
2023-04-12T00:48:34.281Z,33.00
2023-04-12T00:50:35.785Z,31.33
2023-04-12T00:52:37.702Z,27.83
2023-04-12T00:54:39.888Z,31.30
2023-04-12T00:56:41.430Z,38.25
2023-04-12T00:58:42.878Z,37.83
2023-04-12T01:00:50.452Z,34.25
2023-04-12T01:02:52.964Z,34.70
2023-04-12T01:04:54.578Z,30.27
2023-04-12T01:07:15.737Z,33.50
2023-04-12T01:09:27.392Z,29.20
2023-04-12T01:11:32.207Z,36.40
2023-04-12T01:13:41.725Z,34.42
2023-04-12T01:15:56.980Z,29.55
2023-04-12T01:18:05.822Z,31.88
2023-04-12T01:20:16.224Z,35.20
2023-04-12T01:22:23.716Z,34.15
2023-04-12T01:24:43.875Z,29.73
2023-04-12T01:26:46.328Z,28.73
2023-04-12T01:28:50.401Z,29.23
2023-04-12T01:30:52.230Z,28.83
2023-04-12T01:32:55.595Z,27.33
2023-04-12T01:34:58.597Z,28.05
2023-04-12T01:37:02.026Z,28.88
2023-04-12T01:39:04.852Z,28.00
2023-04-12T01:41:07.295Z,26.85
2023-04-12T01:43:10.118Z,28.08
2023-04-12T01:45:11.828Z,29.58
2023-04-12T01:47:13.569Z,27.23
2023-04-12T01:49:16.385Z,27.08
2023-04-12T01:51:17.785Z,21.42
2023-04-12T01:53:57.910Z,25.38
2023-04-12T01:56:00.162Z,28.63
2023-04-12T01:58:02.441Z,24.80
2023-04-12T02:00:06.627Z,36.10
2023-04-12T02:02:09.096Z,26.92
2023-04-12T02:04:11.717Z,26.63
2023-04-12T02:06:13.874Z,28.52
2023-04-12T02:08:15.621Z,24.70
2023-04-12T02:10:17.065Z,28.70
2023-04-12T02:12:18.482Z,27.00
2023-04-12T02:14:19.915Z,26.15
2023-04-12T02:16:23.072Z,22.48
2023-04-12T02:18:24.628Z,27.58
2023-04-12T02:20:26.374Z,24.75
2023-04-12T02:22:27.803Z,35.45
2023-04-12T02:24:29.225Z,28.67
2023-04-12T02:26:30.662Z,25.00
2023-04-12T02:28:33.941Z,27.52
2023-04-12T02:30:35.726Z,24.23
2023-04-12T02:32:45.137Z,21.38
2023-04-12T02:34:51.384Z,23.42
2023-04-12T02:36:52.904Z,24.77
2023-04-12T02:38:54.534Z,22.80
2023-04-12T02:40:56.345Z,22.17
2023-04-12T02:42:57.763Z,22.25
2023-04-12T02:44:59.219Z,24.10
2023-04-12T02:47:00.882Z,20.08
2023-04-12T02:49:02.633Z,24.00
2023-04-12T02:51:04.387Z,21.60
2023-04-12T02:53:05.845Z,20.48
2023-04-12T02:55:07.642Z,16.65
2023-04-12T02:57:09.042Z,24.90
2023-04-12T02:59:10.446Z,30.55
2023-04-12T03:01:13.300Z,32.17
2023-04-12T03:03:14.963Z,45.33
2023-04-12T03:05:17.694Z,27.92
2023-04-12T03:07:19.985Z,50.58
2023-04-12T03:09:21.552Z,38.50
2023-04-12T03:11:23.027Z,39.08
2023-04-12T03:13:24.449Z,46.70
2023-04-12T03:15:28.126Z,29.23
2023-04-12T03:17:29.641Z,37.75
2023-04-12T03:19:33.117Z,36.97
2023-04-12T03:21:35.476Z,34.65
2023-04-12T03:23:36.905Z,34.97
2023-04-12T03:25:38.361Z,35.63
2023-04-12T03:27:40.193Z,51.22
2023-04-12T03:29:42.267Z,45.25
2023-04-12T03:31:43.686Z,44.72
2023-04-12T03:33:45.185Z,46.47
2023-04-12T03:35:46.682Z,45.00
2023-04-12T03:37:48.133Z,45.80
2023-04-12T03:39:49.596Z,40.50
2023-04-12T03:41:53.072Z,33.22
2023-04-12T03:43:54.717Z,41.95
2023-04-12T03:45:56.367Z,65.97
2023-04-12T03:47:57.869Z,106.78
2023-04-12T03:52:07.732Z,38.90
2023-04-12T03:54:15.356Z,39.75
2023-04-12T03:56:16.921Z,34.17
2023-04-12T03:58:18.970Z,30.65
2023-04-12T04:00:20.420Z,22.42
2023-04-12T04:02:22.109Z,33.00
2023-04-12T04:04:24.033Z,37.05
2023-04-12T04:06:25.913Z,34.75
2023-04-12T04:08:28.384Z,31.00
2023-04-12T04:10:29.778Z,44.78
2023-04-12T04:12:31.194Z,47.25
2023-04-12T04:14:34.903Z,58.22
2023-04-12T04:16:36.429Z,59.42
2023-04-12T04:18:37.946Z,55.13
2023-04-12T04:20:39.362Z,28.83
2023-04-12T04:22:42.251Z,43.22
2023-04-12T04:24:43.723Z,53.50
2023-04-12T04:26:45.607Z,57.33
2023-04-12T04:28:47.054Z,31.88
2023-04-12T04:30:48.440Z,49.42
2023-04-12T04:32:50.162Z,72.65
2023-04-12T04:34:52.729Z,50.15
2023-04-12T04:36:54.136Z,39.33
2023-04-12T04:38:57.228Z,65.55
2023-04-12T04:40:59.996Z,32.83
2023-04-12T04:43:01.433Z,31.15
2023-04-12T04:45:05.003Z,31.67
2023-04-12T04:47:06.937Z,39.95
2023-04-12T04:49:08.397Z,43.55
2023-04-12T04:51:09.894Z,41.10
2023-04-12T04:53:11.393Z,37.78
2023-04-12T04:55:13.285Z,34.45
2023-04-12T04:57:15.145Z,35.80
2023-04-12T04:59:17.636Z,37.65
2023-04-12T05:01:19.136Z,37.97
2023-04-12T05:03:20.664Z,31.45
2023-04-12T05:05:23.440Z,32.13
2023-04-12T05:07:26.179Z,59.30
2023-04-12T05:09:27.611Z,38.60
2023-04-12T05:11:29.233Z,38.35
2023-04-12T05:13:30.719Z,35.22
2023-04-12T05:15:32.241Z,40.40
2023-04-12T05:17:36.773Z,48.15
2023-04-12T05:19:38.335Z,40.45
2023-04-12T05:21:39.890Z,37.88
2023-04-12T05:23:46.078Z,44.70
2023-04-12T05:25:48.168Z,50.92
2023-04-12T05:27:51.829Z,41.15
2023-04-12T05:29:54.095Z,47.40
2023-04-12T05:31:55.529Z,43.05
2023-04-12T05:33:56.915Z,44.40
2023-04-12T05:35:58.355Z,53.58
2023-04-12T05:37:59.861Z,58.38
2023-04-12T05:40:01.299Z,47.78
2023-04-12T05:42:02.881Z,66.82
2023-04-12T05:44:04.341Z,50.40
2023-04-12T05:46:08.033Z,56.80
2023-04-12T05:48:09.703Z,50.22
2023-04-12T05:50:11.223Z,53.80
2023-04-12T05:52:12.608Z,53.53
2023-04-12T05:54:14.223Z,42.95
2023-04-12T05:56:16.955Z,55.67
2023-04-12T05:58:18.375Z,113.32
2023-04-12T06:00:21.426Z,102.03
2023-04-12T06:02:26.334Z,57.85
2023-04-12T06:04:38.409Z,55.85
2023-04-12T06:06:48.645Z,78.90
2023-04-12T06:08:50.427Z,78.60
2023-04-12T06:10:51.860Z,83.75
2023-04-12T06:12:53.413Z,78.80
2023-04-12T06:14:55.915Z,84.90
2023-04-12T06:16:57.298Z,309.42
2023-04-12T06:18:59.307Z,70.10
2023-04-12T06:21:01.032Z,94.85
2023-04-12T06:23:02.511Z,71.28
2023-04-12T06:25:04.154Z,78.75
2023-04-12T06:27:05.740Z,76.00
2023-04-12T06:29:07.134Z,181.38
2023-04-12T06:31:09.583Z,171.80
2023-04-12T06:33:11.968Z,112.50
2023-04-12T06:35:13.843Z,67.20
2023-04-12T06:37:16.000Z,56.25
2023-04-12T06:39:17.636Z,64.68
2023-04-12T06:41:19.036Z,64.85
2023-04-12T06:43:22.333Z,57.08
2023-04-12T06:45:23.728Z,69.22
2023-04-12T06:47:25.471Z,84.93
2023-04-12T06:49:27.154Z,69.80
2023-04-12T06:51:28.634Z,63.60
2023-04-12T06:53:30.884Z,52.53
2023-04-12T06:55:32.303Z,45.90
2023-04-12T06:57:33.718Z,48.17
2023-04-12T06:59:35.122Z,48.30
2023-04-12T07:01:36.502Z,55.03
2023-04-12T07:03:38.076Z,47.22
2023-04-12T07:05:39.578Z,41.33
2023-04-12T07:07:41.036Z,46.75
2023-04-12T07:09:43.094Z,44.15
2023-04-12T07:11:44.512Z,36.97
2023-04-12T07:13:46.138Z,48.92
2023-04-12T07:15:48.516Z,40.75
2023-04-12T07:17:49.981Z,66.80
2023-04-12T07:19:52.247Z,32.72
2023-04-12T07:21:53.705Z,45.40
2023-04-12T07:23:55.946Z,40.22
2023-04-12T07:26:01.091Z,30.40
2023-04-12T07:28:03.538Z,57.20
2023-04-12T07:30:05.187Z,31.27
2023-04-12T07:32:06.833Z,33.35
2023-04-12T07:34:08.449Z,51.50
2023-04-12T07:36:10.640Z,27.50
2023-04-12T07:38:12.780Z,29.05
2023-04-12T07:40:17.712Z,32.47
2023-04-12T07:42:19.141Z,32.78
2023-04-12T07:44:20.738Z,37.88
2023-04-12T07:46:22.283Z,31.15
2023-04-12T07:48:23.889Z,37.45
2023-04-12T07:50:26.235Z,27.30
2023-04-12T07:52:27.786Z,22.20
2023-04-12T07:54:29.320Z,32.88
2023-04-12T07:56:33.241Z,23.10
2023-04-12T07:58:34.999Z,24.27
2023-04-12T08:00:37.002Z,24.17
2023-04-12T08:02:38.578Z,33.10
2023-04-12T08:04:44.152Z,32.05
2023-04-12T08:06:45.942Z,27.02
2023-04-12T08:08:47.749Z,30.73
2023-04-12T08:10:49.726Z,20.02
2023-04-12T08:12:51.388Z,35.15
2023-04-12T08:14:52.819Z,26.65
2023-04-12T08:16:54.222Z,19.90
2023-04-12T08:18:56.588Z,23.55
2023-04-12T08:20:58.333Z,22.45
2023-04-12T08:22:59.992Z,18.67
2023-04-12T08:25:01.582Z,24.85
2023-04-12T08:27:03.660Z,35.58
2023-04-12T08:29:05.267Z,24.85
2023-04-12T08:31:07.521Z,23.90
2023-04-12T08:33:09.300Z,19.52
2023-04-12T08:35:11.191Z,19.83
2023-04-12T08:37:12.595Z,19.05
2023-04-12T08:39:14.006Z,15.43
2023-04-12T08:41:15.773Z,16.05
2023-04-12T08:43:18.600Z,12.32
2023-04-12T08:45:21.545Z,17.83
2023-04-12T08:47:23.083Z,25.75
2023-04-12T08:49:25.098Z,18.73
2023-04-12T08:51:26.807Z,15.13
2023-04-12T08:53:28.752Z,17.73
2023-04-12T08:55:30.241Z,19.80
2023-04-12T08:57:32.785Z,18.75
2023-04-12T08:59:37.532Z,13.77
2023-04-12T09:01:41.514Z,13.68
2023-04-12T09:03:44.875Z,15.55
2023-04-12T09:05:47.053Z,17.15
2023-04-12T09:07:48.625Z,15.43
2023-04-12T09:09:50.539Z,20.77
2023-04-12T09:11:51.991Z,24.67
2023-04-12T09:13:57.664Z,13.23
2023-04-12T09:16:00.152Z,13.35
2023-04-12T09:18:08.966Z,11.85
2023-04-12T09:20:16.219Z,10.70
2023-04-12T09:22:17.756Z,12.68
2023-04-12T09:24:19.284Z,11.45
2023-04-12T09:26:27.148Z,13.05
2023-04-12T09:28:30.008Z,13.00
2023-04-12T09:30:40.852Z,8.50
2023-04-12T09:32:42.470Z,9.70
2023-04-12T09:34:55.081Z,15.93
2023-04-12T09:36:57.882Z,10.85
2023-04-12T09:39:01.447Z,9.57
2023-04-12T09:41:20.208Z,8.13
2023-04-12T09:45:25.802Z,8.50
2023-04-12T09:47:38.147Z,14.07
2023-04-12T09:49:57.470Z,9.52
2023-04-12T09:51:59.605Z,7.60
2023-04-12T09:54:02.578Z,9.02
2023-04-12T09:56:05.045Z,9.90
2023-04-12T09:58:06.705Z,11.32
2023-04-12T10:00:13.143Z,11.63
2023-04-12T10:02:18.771Z,8.63
2023-04-12T10:04:24.124Z,10.18
2023-04-12T10:06:27.298Z,9.32
2023-04-12T10:08:28.822Z,9.38
2023-04-12T10:10:30.582Z,9.75
2023-04-12T10:12:32.088Z,10.48
2023-04-12T10:14:33.888Z,13.93
2023-04-12T10:16:35.513Z,12.70
2023-04-12T10:18:37.554Z,16.83
2023-04-12T10:20:40.085Z,9.02
2023-04-12T10:22:42.237Z,12.65
2023-04-12T10:24:43.806Z,10.95
2023-04-12T10:26:45.500Z,14.40
2023-04-12T10:29:07.453Z,8.35
2023-04-12T10:31:30.424Z,6.35
2023-04-12T10:33:32.059Z,5.57
2023-04-12T10:35:49.022Z,7.20
2023-04-12T10:38:04.399Z,33.67
2023-04-12T10:40:06.360Z,13.98
2023-04-12T10:42:23.196Z,11.00
2023-04-12T10:44:26.421Z,8.43
2023-04-12T10:46:40.570Z,11.27
2023-04-12T10:48:52.134Z,7.47
2023-04-12T10:51:11.944Z,8.18
2023-04-12T10:53:13.367Z,10.70
2023-04-12T10:55:30.685Z,9.38
2023-04-12T10:57:43.397Z,6.28
2023-04-12T10:59:56.677Z,10.68
2023-04-12T11:02:08.677Z,170.18
2023-04-12T11:04:15.322Z,8.73
2023-04-12T11:06:27.019Z,6.25
2023-04-12T11:08:30.591Z,11.43
2023-04-12T11:10:32.174Z,20.35
2023-04-12T11:12:34.138Z,7.28
2023-04-12T11:14:51.707Z,7.93
2023-04-12T11:17:08.608Z,9.00
2023-04-12T11:19:10.814Z,15.68
2023-04-12T11:21:12.446Z,42.72
2023-04-12T11:23:15.035Z,17.95
2023-04-12T11:25:18.189Z,17.88
2023-04-12T11:27:23.905Z,16.38
2023-04-12T11:29:26.030Z,11.05
2023-04-12T11:31:27.531Z,9.30
2023-04-12T11:33:32.821Z,10.65
2023-04-12T11:35:34.476Z,11.30
2023-04-12T11:37:36.083Z,13.07
2023-04-12T11:39:41.552Z,10.45
2023-04-12T11:41:46.446Z,9.27
2023-04-12T11:43:48.416Z,13.00
2023-04-12T11:45:56.124Z,10.10
2023-04-12T11:47:58.509Z,8.10
2023-04-12T11:50:00.195Z,11.48
2023-04-12T11:52:03.467Z,12.90
2023-04-12T11:54:04.956Z,12.02
2023-04-12T11:56:06.948Z,11.75
2023-04-12T11:58:08.875Z,13.98
2023-04-12T12:00:10.989Z,18.38
2023-04-12T12:02:22.909Z,19.45
2023-04-12T12:04:26.220Z,12.13
2023-04-12T12:06:28.438Z,12.65
2023-04-12T12:08:30.489Z,16.95
2023-04-12T12:10:46.181Z,14.75
2023-04-12T12:12:57.233Z,17.40
2023-04-12T12:14:59.659Z,12.70
2023-04-12T12:17:01.421Z,11.00
2023-04-12T12:19:06.080Z,11.93
2023-04-12T12:21:11.138Z,9.45
2023-04-12T12:23:12.646Z,9.05
2023-04-12T12:25:14.161Z,9.95
2023-04-12T12:27:19.629Z,11.15
2023-04-12T12:29:22.093Z,9.70
2023-04-12T12:31:24.640Z,8.75
2023-04-12T12:33:45.646Z,9.57
2023-04-12T12:35:55.737Z,11.82
2023-04-12T12:37:59.025Z,14.85
2023-04-12T12:40:01.395Z,10.93
2023-04-12T12:42:05.943Z,12.57
2023-04-12T12:44:08.321Z,24.02
2023-04-12T12:46:10.196Z,8.80
2023-04-12T12:48:11.923Z,8.10
2023-04-12T12:50:14.344Z,30.98
2023-04-12T12:52:17.783Z,15.55
2023-04-12T12:54:32.119Z,15.10
2023-04-12T12:56:38.083Z,9.27
2023-04-12T12:58:42.376Z,11.85
2023-04-12T13:00:44.161Z,10.63
2023-04-12T13:02:46.033Z,9.52
2023-04-12T13:04:47.796Z,9.35
2023-04-12T13:06:49.654Z,10.02
2023-04-12T13:08:52.326Z,36.05
2023-04-12T13:10:55.880Z,13.55
2023-04-12T13:12:58.765Z,7.65
2023-04-12T13:15:18.108Z,10.27
2023-04-12T13:17:23.500Z,7.00
2023-04-12T13:19:24.983Z,14.93
2023-04-12T13:21:27.345Z,14.95
2023-04-12T13:23:28.830Z,9.48
2023-04-12T13:25:30.466Z,10.05
2023-04-12T13:27:35.194Z,6.90
2023-04-12T13:29:37.009Z,5.30
2023-04-12T13:31:38.693Z,6.50
2023-04-12T13:33:40.447Z,10.82
2023-04-12T13:35:42.531Z,8.80
2023-04-12T13:37:44.111Z,11.15
2023-04-12T13:39:46.124Z,15.50
2023-04-12T13:41:48.114Z,42.20
2023-04-12T13:43:49.669Z,11.63
2023-04-12T13:45:51.244Z,63.78
2023-04-12T13:47:53.007Z,10.35
2023-04-12T13:49:54.745Z,7.80
2023-04-12T13:51:56.910Z,6.38
2023-04-12T13:53:58.716Z,8.73
2023-04-12T13:56:00.969Z,13.30
2023-04-12T13:58:03.221Z,6.97
2023-04-12T14:00:05.201Z,5.57
2023-04-12T14:02:10.612Z,6.05
2023-04-12T14:04:12.320Z,5.78
2023-04-12T14:06:13.900Z,4.88
2023-04-12T14:08:16.576Z,6.18
2023-04-12T14:10:26.992Z,4.22
2023-04-12T14:12:33.421Z,5.63
2023-04-12T14:14:34.915Z,6.88
2023-04-12T14:16:36.495Z,8.10
2023-04-12T14:18:38.105Z,9.15
2023-04-12T14:20:39.629Z,7.97
2023-04-12T14:22:41.572Z,7.82
2023-04-12T14:24:43.057Z,7.03
2023-04-12T14:26:45.362Z,7.82
2023-04-12T14:28:50.003Z,18.40
2023-04-12T14:30:52.096Z,10.60
2023-04-12T14:32:54.446Z,5.07
2023-04-12T14:34:56.175Z,7.55
2023-04-12T14:36:58.460Z,8.32
2023-04-12T14:39:00.024Z,5.53
2023-04-12T14:41:01.803Z,5.35
2023-04-12T14:43:03.915Z,15.57
2023-04-12T14:45:08.083Z,15.90
2023-04-12T14:47:09.533Z,5.13
2023-04-12T14:49:11.057Z,5.45
2023-04-12T14:51:12.747Z,6.18
2023-04-12T14:53:16.362Z,12.95
2023-04-12T14:55:18.343Z,10.95
2023-04-12T14:57:20.046Z,14.23
2023-04-12T14:59:21.790Z,6.72
2023-04-12T15:01:24.080Z,21.35
2023-04-12T15:03:26.790Z,5.90
2023-04-12T15:05:28.959Z,8.90
2023-04-12T15:07:30.596Z,30.02
2023-04-12T15:09:32.113Z,23.65
2023-04-12T15:11:35.634Z,27.15
2023-04-12T15:13:39.566Z,12.50
2023-04-12T15:15:47.554Z,10.70
2023-04-12T15:17:49.229Z,12.63
2023-04-12T15:19:51.000Z,35.70
2023-04-12T15:21:55.083Z,14.75
2023-04-12T15:23:57.725Z,37.35
2023-04-12T15:26:02.738Z,23.45
2023-04-12T15:28:13.225Z,22.42
2023-04-12T15:30:21.273Z,34.53
2023-04-12T15:32:22.995Z,25.90
2023-04-12T15:34:25.462Z,23.85
2023-04-12T15:36:33.952Z,35.65
2023-04-12T15:38:42.549Z,26.20
2023-04-12T15:40:44.120Z,23.60
2023-04-12T15:42:48.520Z,37.58
2023-04-12T15:44:50.037Z,31.45
2023-04-12T15:46:59.538Z,16.02
2023-04-12T15:49:09.811Z,12.48
2023-04-12T15:51:11.577Z,17.80
2023-04-12T15:53:13.169Z,25.55
2023-04-12T15:55:16.963Z,18.45
2023-04-12T15:57:27.066Z,23.83
2023-04-12T15:59:29.976Z,58.60
2023-04-12T16:01:31.682Z,67.53
2023-04-12T16:03:33.966Z,100.25
2023-04-12T16:05:36.067Z,67.43
2023-04-12T16:07:40.617Z,71.68
2023-04-12T16:09:42.494Z,45.55
2023-04-12T16:11:44.154Z,30.50
2023-04-12T16:13:48.100Z,118.90
2023-04-12T16:15:49.658Z,77.82
2023-04-12T16:17:53.331Z,24.90
2023-04-12T16:19:59.018Z,221.30
2023-04-12T16:22:00.590Z,99.22
2023-04-12T16:24:02.310Z,19.58
2023-04-12T16:26:05.106Z,11.77
2023-04-12T16:28:07.837Z,19.52
2023-04-12T16:30:10.590Z,44.00
2023-04-12T16:32:12.657Z,30.00
2023-04-12T16:34:15.856Z,32.70
2023-04-12T16:36:17.513Z,92.80
2023-04-12T16:38:19.179Z,31.52
2023-04-12T16:40:20.748Z,21.52
2023-04-12T16:42:24.692Z,21.85
2023-04-12T16:44:26.563Z,14.18
2023-04-12T16:46:28.285Z,134.55
2023-04-12T16:48:29.780Z,148.02
2023-04-12T16:50:31.507Z,187.18
2023-04-12T16:52:33.769Z,160.30
2023-04-12T16:54:35.512Z,70.13
2023-04-12T16:56:37.496Z,70.75
2023-04-12T16:58:38.935Z,430.70
2023-04-12T17:00:42.923Z,126.78
2023-04-12T17:02:44.636Z,69.25
2023-04-12T17:04:46.354Z,43.28
2023-04-12T17:06:47.931Z,82.63
2023-04-12T17:08:49.567Z,349.85
2023-04-12T17:10:51.181Z,88.75
2023-04-12T17:13:00.122Z,115.13
2023-04-12T17:15:02.079Z,95.10
2023-04-12T17:17:06.341Z,135.75
2023-04-12T17:19:10.457Z,212.90
2023-04-12T17:21:14.685Z,535.70
2023-04-12T17:23:16.225Z,124.18
2023-04-12T17:25:19.870Z,86.05
2023-04-12T17:27:22.848Z,117.20
2023-04-12T17:29:24.769Z,60.53
2023-04-12T17:31:27.177Z,322.92
2023-04-12T17:33:29.094Z,138.18
2023-04-12T17:35:30.655Z,89.93
2023-04-12T17:37:32.519Z,208.07
2023-04-12T17:39:33.992Z,129.15
2023-04-12T17:41:35.720Z,263.38
2023-04-12T17:43:37.291Z,128.90
2023-04-12T17:45:38.882Z,84.35
2023-04-12T17:47:41.048Z,265.45
2023-04-12T17:49:42.639Z,378.52
2023-04-12T17:51:44.108Z,297.40
2023-04-12T17:53:45.831Z,167.05
2023-04-12T17:55:48.915Z,150.60
2023-04-12T17:57:52.982Z,86.82
2023-04-12T17:59:54.455Z,108.93
2023-04-12T18:01:56.335Z,110.25
2023-04-12T18:04:00.628Z,278.55
2023-04-12T18:06:04.254Z,92.82
2023-04-12T18:08:06.254Z,142.40
2023-04-12T18:10:08.331Z,81.72
2023-04-12T18:12:09.751Z,100.80
2023-04-12T18:14:12.049Z,213.90
2023-04-12T18:16:13.676Z,428.95
2023-04-12T18:18:15.236Z,217.93
2023-04-12T18:20:17.303Z,139.48
2023-04-12T18:22:18.838Z,198.13
2023-04-12T18:24:20.510Z,183.55
2023-04-12T18:26:22.760Z,86.75
2023-04-12T18:28:24.862Z,377.25
2023-04-12T18:30:26.389Z,368.80
2023-04-12T18:32:28.970Z,241.82
2023-04-12T18:34:30.475Z,458.92
2023-04-12T18:36:32.495Z,275.48
2023-04-12T18:38:35.620Z,502.80
2023-04-12T18:40:38.248Z,394.05
2023-04-12T18:42:39.761Z,289.92
2023-04-12T18:44:42.206Z,239.13
2023-04-12T18:46:43.710Z,206.57
2023-04-12T18:48:45.869Z,122.80
2023-04-12T18:50:47.651Z,122.40
2023-04-12T18:52:49.237Z,109.72
2023-04-12T18:54:50.905Z,394.40
2023-04-12T18:56:53.137Z,413.40
2023-04-12T18:58:56.240Z,250.63
2023-04-12T19:00:57.934Z,327.45
2023-04-12T19:02:59.552Z,267.15
2023-04-12T19:05:01.241Z,305.88
2023-04-12T19:07:02.689Z,216.35
2023-04-12T19:09:04.393Z,134.88
2023-04-12T19:11:07.542Z,115.93
2023-04-12T19:13:09.042Z,153.23
2023-04-12T19:15:10.816Z,90.95
2023-04-12T19:17:12.319Z,118.90
2023-04-12T19:19:13.880Z,125.95
2023-04-12T19:21:15.577Z,158.38
2023-04-12T19:23:17.021Z,115.68
2023-04-12T19:25:19.831Z,141.18
2023-04-12T19:27:23.000Z,97.75
2023-04-12T19:29:25.623Z,74.82
2023-04-12T19:31:27.300Z,54.53
2023-04-12T19:33:28.851Z,86.10
2023-04-12T19:35:32.938Z,181.40
2023-04-12T19:37:34.858Z,258.20
2023-04-12T19:39:37.752Z,138.27
2023-04-12T19:41:39.158Z,103.85
2023-04-12T19:43:41.183Z,63.70
2023-04-12T19:45:43.231Z,84.35
2023-04-12T19:47:45.015Z,104.10
2023-04-12T19:49:47.617Z,97.93
2023-04-12T19:51:49.159Z,119.10
2023-04-12T19:53:53.222Z,107.13
2023-04-12T19:55:58.112Z,138.65
2023-04-12T19:57:59.569Z,80.35
2023-04-12T20:00:01.635Z,63.10
2023-04-12T20:02:03.223Z,45.58
2023-04-12T20:04:05.637Z,48.33
2023-04-12T20:06:07.192Z,49.50
2023-04-12T20:08:10.788Z,47.63
2023-04-12T20:10:15.685Z,46.38
2023-04-12T20:12:17.842Z,65.95
2023-04-12T20:14:19.297Z,60.35
2023-04-12T20:16:20.715Z,80.10
2023-04-12T20:18:22.203Z,123.07
2023-04-12T20:20:23.770Z,206.60
2023-04-12T20:22:25.281Z,218.18
2023-04-12T20:24:27.647Z,192.75
2023-04-12T20:26:32.099Z,165.77
2023-04-12T20:28:34.441Z,118.88
2023-04-12T20:30:36.720Z,97.85
2023-04-12T20:32:38.797Z,88.38
2023-04-12T20:34:46.439Z,83.75
2023-04-12T20:36:48.383Z,68.57
2023-04-12T20:38:50.803Z,56.38
2023-04-12T20:40:52.373Z,46.03
2023-04-12T20:42:53.848Z,41.75
2023-04-12T20:44:55.422Z,38.97
2023-04-12T20:46:56.981Z,44.88
2023-04-12T20:48:58.734Z,51.10
2023-04-12T20:51:00.287Z,56.88
2023-04-12T20:53:01.722Z,58.80
2023-04-12T20:55:05.519Z,55.50
2023-04-12T20:57:07.888Z,55.72
2023-04-12T20:59:10.445Z,53.65
2023-04-12T21:01:15.024Z,75.75
2023-04-12T21:03:17.635Z,119.25
2023-04-12T21:05:19.230Z,119.38
2023-04-12T21:07:21.505Z,103.28
2023-04-12T21:09:26.681Z,86.82
2023-04-12T21:11:28.059Z,67.80
2023-04-12T21:13:33.462Z,63.20
2023-04-12T21:15:35.513Z,58.03
2023-04-12T21:17:37.218Z,55.70
2023-04-12T21:19:42.006Z,53.25
2023-04-12T21:21:43.596Z,57.50
2023-04-12T21:23:45.045Z,58.30
2023-04-12T21:25:46.921Z,55.20
2023-04-12T21:27:49.314Z,54.95
2023-04-12T21:29:50.862Z,55.00
2023-04-12T21:31:52.273Z,65.15
2023-04-12T21:33:54.901Z,63.58
2023-04-12T21:35:56.422Z,79.93
2023-04-12T21:37:58.197Z,102.22
2023-04-12T21:39:59.734Z,95.88
2023-04-12T21:42:01.691Z,87.90
2023-04-12T21:44:03.328Z,84.05
2023-04-12T21:46:05.567Z,85.75
2023-04-12T21:48:07.146Z,72.90
2023-04-12T21:50:09.861Z,82.07
2023-04-12T21:52:11.278Z,112.05
2023-04-12T21:54:12.735Z,120.10
2023-04-12T21:56:14.174Z,94.78
2023-04-12T21:58:15.837Z,100.47
2023-04-12T22:00:18.307Z,88.43
2023-04-12T22:02:19.819Z,89.72
2023-04-12T22:04:21.399Z,107.05
2023-04-12T22:06:22.861Z,109.93
2023-04-12T22:08:24.259Z,179.23
2023-04-12T22:10:25.770Z,106.57
2023-04-12T22:12:27.229Z,135.80
2023-04-12T22:14:31.789Z,90.70
2023-04-12T22:16:33.366Z,135.60
2023-04-12T22:18:35.792Z,122.18
2023-04-12T22:20:37.242Z,121.43
2023-04-12T22:22:39.118Z,96.28
2023-04-12T22:24:40.612Z,62.58
2023-04-12T22:26:42.132Z,96.60
2023-04-12T22:28:44.384Z,128.05
2023-04-12T22:30:46.904Z,129.18
2023-04-12T22:32:48.495Z,115.22
2023-04-12T22:35:05.124Z,107.38
2023-04-12T22:37:09.404Z,120.45
2023-04-12T22:39:10.810Z,136.75
2023-04-12T22:41:15.034Z,132.02
2023-04-12T22:43:18.305Z,380.13
2023-04-12T22:45:19.744Z,368.58
2023-04-12T22:47:21.223Z,322.70
2023-04-12T22:49:28.391Z,275.13
2023-04-12T22:51:30.437Z,187.02
2023-04-12T22:53:33.223Z,150.20
2023-04-12T22:55:36.885Z,142.15
2023-04-12T22:57:38.887Z,106.55
2023-04-12T22:59:40.275Z,95.85
2023-04-12T23:01:41.982Z,91.28
2023-04-12T23:03:43.668Z,88.18
2023-04-12T23:05:45.893Z,80.45
2023-04-12T23:07:49.121Z,72.18
2023-04-12T23:09:51.172Z,71.60
2023-04-12T23:11:52.671Z,112.30
2023-04-12T23:13:54.840Z,107.55
2023-04-12T23:15:56.819Z,102.32
2023-04-12T23:18:01.643Z,99.80
2023-04-12T23:20:05.659Z,150.68
2023-04-12T23:22:07.136Z,105.68
2023-04-12T23:24:12.380Z,80.20
2023-04-12T23:26:13.841Z,119.80
2023-04-12T23:28:15.905Z,136.38
2023-04-12T23:30:17.752Z,356.13
2023-04-12T23:32:19.633Z,211.23
2023-04-12T23:34:22.145Z,177.18
2023-04-12T23:36:25.657Z,235.63
2023-04-12T23:38:32.119Z,217.13
2023-04-12T23:40:34.761Z,317.83
2023-04-12T23:42:37.080Z,308.67
2023-04-12T23:44:38.588Z,287.55
2023-04-12T23:46:40.215Z,378.35
2023-04-12T23:48:42.165Z,348.45
2023-04-12T23:50:46.958Z,244.15
2023-04-12T23:52:48.490Z,208.70
2023-04-12T23:54:50.049Z,201.85
2023-04-12T23:56:51.495Z,198.90
2023-04-12T23:58:52.989Z,175.93
